createdAt,value
2022-09-10T09:21:10.837Z,1019.4
2022-09-10T09:32:02.278Z,1019.3
2022-09-10T09:37:39.082Z,1019.3
2022-09-10T09:43:27.550Z,1019.2
2022-09-10T09:48:43.598Z,1019.1
2022-09-10T09:55:10.501Z,1019.1
2022-09-10T10:00:06.524Z,1019
2022-09-10T10:05:36.484Z,1019
2022-09-10T10:11:06.489Z,1018.9
2022-09-10T10:17:04.241Z,1018.9
2022-09-10T10:22:29.312Z,1018.9
2022-09-10T10:28:12.903Z,1018.6
2022-09-10T10:33:57.828Z,1018.5
2022-09-10T10:39:26.468Z,1018.3
2022-09-10T10:44:55.697Z,1018.1
2022-09-10T10:50:30.700Z,1018
2022-09-10T10:56:15.676Z,1018
2022-09-10T11:01:48.338Z,1017.9
2022-09-10T11:07:27.597Z,1018.1
2022-09-10T11:13:17.410Z,1018.1
2022-09-10T11:18:52.916Z,1018
2022-09-10T11:24:08.646Z,1018.1
2022-09-10T11:30:09.502Z,1017.9
2022-09-10T11:35:43.734Z,1017.9
2022-09-10T11:41:18.590Z,1017.8
2022-09-10T11:46:57.263Z,1017.8
2022-09-10T11:52:33.380Z,1017.7
2022-09-10T11:58:14.948Z,1017.8
2022-09-10T12:03:45.725Z,1017.9
2022-09-10T12:09:07.291Z,1018
2022-09-10T12:14:58.050Z,1018.1
2022-09-10T12:20:40.810Z,1018.2
2022-09-10T12:26:12.941Z,1018.3
2022-09-10T12:37:15.861Z,1018.5
2022-09-10T12:42:50.658Z,1018.5
2022-09-10T12:48:44.689Z,1018.5
2022-09-10T12:54:08.997Z,1018.5
2022-09-10T12:59:51.710Z,1018.5
2022-09-10T13:05:32.263Z,1018.4
2022-09-10T13:10:59.706Z,1018.5
2022-09-10T13:16:22.007Z,1018.4
2022-09-10T13:21:56.298Z,1018.5
2022-09-10T13:27:39.201Z,1018.4
2022-09-10T13:33:15.346Z,1018.5
2022-09-10T13:39:03.037Z,1018.6
2022-09-10T13:44:31.619Z,1018.5
2022-09-10T13:50:18.698Z,1018.5
2022-09-10T13:55:31.033Z,1018.6
2022-09-10T14:01:15.608Z,1018.5
2022-09-10T14:07:06.651Z,1018.4
2022-09-10T14:12:40.941Z,1018.3
2022-09-10T14:17:54.845Z,1018.4
2022-09-10T14:23:50.324Z,1018.2
2022-09-10T14:29:17.955Z,1018.2
2022-09-10T14:35:02.705Z,1018.1
2022-09-10T14:40:28.771Z,1018
2022-09-10T14:46:05.173Z,1018
2022-09-10T14:51:45.565Z,1018
2022-09-10T14:57:28.735Z,1018
2022-09-10T15:03:06.340Z,1018.1
2022-09-10T15:08:46.852Z,1018.1
2022-09-10T15:14:03.814Z,1018.1
2022-09-10T15:19:40.258Z,1018
2022-09-10T15:48:05.657Z,1018.2
2022-09-10T15:53:24.115Z,1018.1
2022-09-10T15:59:06.161Z,1018.1
